Terminal Aerodrome Forecast
Issued by NWS

Home | Current Version | Previous Version | Text Only | Print | Product List | Glossary On
Versions: 1 2 3 4 5 6 7 8 9 10 11 12 13 14 15
000
FTUS42 TJSJ 300534
TAFNCM
TAF
TNCM 300534Z 3006/0106 08012KT P6SM VCSH FEW020
      TEMPO 3006/3009 SHRA BKN018
     FM301300 10016KT P6SM SCT020
     FM302300 08011KT P6SM SCT020=

USA.gov is the U.S. government's official web portal to all federal, state and local government web resources and services.